createdAt,value
2019-03-04T00:00:24.501Z,23.57
2019-03-04T00:02:57.601Z,24.93
2019-03-04T00:05:30.501Z,25.63
2019-03-04T00:08:03.430Z,25.97
2019-03-04T00:10:36.466Z,25.43
2019-03-04T00:13:09.694Z,24.73
2019-03-04T00:15:43.047Z,25.10
2019-03-04T00:18:16.241Z,25.47
2019-03-04T00:20:49.217Z,21.47
2019-03-04T00:23:22.548Z,22.43
2019-03-04T00:25:55.642Z,24.57
2019-03-04T00:28:28.916Z,24.33
2019-03-04T00:31:02.033Z,27.37
2019-03-04T00:33:35.068Z,23.40
2019-03-04T00:36:08.389Z,24.57
2019-03-04T00:38:41.122Z,29.13
2019-03-04T00:41:14.174Z,25.87
2019-03-04T00:43:47.218Z,24.53
2019-03-04T00:46:20.255Z,28.40
2019-03-04T00:48:53.220Z,22.87
2019-03-04T00:51:26.581Z,24.93
2019-03-04T00:54:00.044Z,20.00
2019-03-04T00:56:33.330Z,25.60
2019-03-04T00:59:06.651Z,20.00
2019-03-04T01:01:40.111Z,23.03
2019-03-04T01:04:13.086Z,20.03
2019-03-04T01:06:46.016Z,23.17
2019-03-04T01:09:19.256Z,25.83
2019-03-04T01:11:52.316Z,22.87
2019-03-04T01:14:25.221Z,23.97
2019-03-04T01:16:58.314Z,19.20
2019-03-04T01:19:31.428Z,21.70
2019-03-04T01:22:04.786Z,20.43
2019-03-04T01:24:37.594Z,20.60
2019-03-04T01:27:10.751Z,21.17
2019-03-04T01:29:43.651Z,18.27
2019-03-04T01:32:16.709Z,19.37
2019-03-04T01:34:49.763Z,21.93
2019-03-04T01:37:22.651Z,18.40
2019-03-04T01:39:56.736Z,20.77
2019-03-04T01:42:29.741Z,21.60
2019-03-04T01:45:02.898Z,22.60
2019-03-04T01:47:36.015Z,19.07
2019-03-04T01:50:11.034Z,23.17
2019-03-04T01:52:44.234Z,22.00
2019-03-04T01:55:18.903Z,18.03
2019-03-04T01:57:51.822Z,27.43
2019-03-04T02:00:25.177Z,21.43
2019-03-04T02:02:58.370Z,23.80
2019-03-04T02:05:31.471Z,22.10
2019-03-04T02:08:04.510Z,19.03
2019-03-04T02:10:37.542Z,19.73
2019-03-04T02:13:10.416Z,19.97
2019-03-04T02:15:43.454Z,22.30
2019-03-04T02:18:16.438Z,21.03
2019-03-04T02:20:50.081Z,21.63
2019-03-04T02:23:23.066Z,21.20
2019-03-04T02:26:33.931Z,26.67
2019-03-04T02:29:06.988Z,20.57
2019-03-04T02:31:39.878Z,27.03
2019-03-04T02:34:13.090Z,41.67
2019-03-04T02:36:46.340Z,26.70
2019-03-04T02:39:19.399Z,22.77
2019-03-04T02:41:52.720Z,21.90
2019-03-04T02:44:26.191Z,26.10
2019-03-04T02:46:59.042Z,24.40
2019-03-04T02:49:32.243Z,25.53
2019-03-04T02:52:06.082Z,23.07
2019-03-04T02:54:39.291Z,24.00
2019-03-04T02:57:12.608Z,19.10
2019-03-04T02:59:45.426Z,22.73
2019-03-04T03:02:18.803Z,20.13
2019-03-04T03:04:51.999Z,19.60
2019-03-04T03:07:25.160Z,22.00
2019-03-04T03:09:58.046Z,22.17
2019-03-04T03:12:31.069Z,33.20
2019-03-04T03:15:04.008Z,25.23
2019-03-04T03:17:38.578Z,21.67
2019-03-04T03:20:12.452Z,24.10
2019-03-04T03:22:46.260Z,23.00
2019-03-04T03:25:19.183Z,29.03
2019-03-04T03:27:52.316Z,24.03
2019-03-04T03:30:25.701Z,24.13
2019-03-04T03:32:58.673Z,31.70
2019-03-04T03:35:31.820Z,24.93
2019-03-04T03:38:05.097Z,26.40
2019-03-04T03:40:38.125Z,24.07
2019-03-04T03:43:11.179Z,28.27
2019-03-04T03:45:44.114Z,77.13
2019-03-04T03:48:17.022Z,69.67
2019-03-04T03:50:50.616Z,52.70
2019-03-04T03:53:23.938Z,39.33
2019-03-04T03:55:57.149Z,28.63
2019-03-04T03:58:31.313Z,32.30
2019-03-04T04:01:04.478Z,29.20
2019-03-04T04:03:37.440Z,26.07
2019-03-04T04:06:10.593Z,25.83
2019-03-04T04:08:43.656Z,25.90
2019-03-04T04:11:17.190Z,24.60
2019-03-04T04:13:50.245Z,28.70
2019-03-04T04:16:23.399Z,34.37
2019-03-04T04:18:56.322Z,38.30
2019-03-04T04:21:30.412Z,27.47
2019-03-04T04:24:04.238Z,33.23
2019-03-04T04:26:37.257Z,40.83
2019-03-04T04:29:14.575Z,46.80
2019-03-04T04:31:47.538Z,51.60
2019-03-04T04:34:20.591Z,51.43
2019-03-04T04:36:53.710Z,39.50
2019-03-04T04:39:26.855Z,40.60
2019-03-04T04:42:00.073Z,37.30
2019-03-04T04:44:33.246Z,35.40
2019-03-04T04:47:10.626Z,29.87
2019-03-04T04:49:43.591Z,33.53
2019-03-04T04:52:16.523Z,38.87
2019-03-04T04:54:49.701Z,41.60
2019-03-04T04:57:22.879Z,35.17
2019-03-04T04:59:55.943Z,33.10
2019-03-04T05:02:29.187Z,34.17
2019-03-04T05:05:02.501Z,40.97
2019-03-04T05:07:35.674Z,39.83
2019-03-04T05:10:13.339Z,32.70
2019-03-04T05:12:46.887Z,35.53
2019-03-04T05:15:20.279Z,30.83
2019-03-04T05:17:53.873Z,30.13
2019-03-04T05:20:27.155Z,34.03
2019-03-04T05:23:00.397Z,40.80
2019-03-04T05:25:33.682Z,35.53
2019-03-04T05:28:07.050Z,49.13
2019-03-04T05:30:40.175Z,37.30
2019-03-04T05:33:13.159Z,31.30
2019-03-04T05:35:47.472Z,36.60
2019-03-04T05:38:20.607Z,33.43
2019-03-04T05:40:53.570Z,33.13
2019-03-04T05:43:26.681Z,23.50
2019-03-04T05:45:59.940Z,30.23
2019-03-04T05:48:33.369Z,32.50
2019-03-04T05:51:06.737Z,31.80
2019-03-04T05:53:40.080Z,34.83
2019-03-04T05:56:13.922Z,36.33
2019-03-04T05:58:46.850Z,33.43
2019-03-04T06:01:34.738Z,31.93
2019-03-04T06:04:13.492Z,38.20
2019-03-04T06:06:53.745Z,41.47
2019-03-04T06:09:27.029Z,103.30
2019-03-04T06:12:00.207Z,247.23
2019-03-04T06:14:33.663Z,48.60
2019-03-04T06:17:07.277Z,29.73
2019-03-04T06:19:40.394Z,30.43
2019-03-04T06:22:13.394Z,22.83
2019-03-04T06:24:46.423Z,37.07
2019-03-04T06:27:19.901Z,40.70
2019-03-04T06:29:53.087Z,23.70
2019-03-04T06:32:25.978Z,29.30
2019-03-04T06:34:58.975Z,28.77
2019-03-04T06:37:32.115Z,26.80
2019-03-04T06:40:05.832Z,26.60
2019-03-04T06:42:39.026Z,23.70
2019-03-04T06:45:14.831Z,23.77
2019-03-04T06:47:47.574Z,24.90
2019-03-04T06:50:52.423Z,21.70
2019-03-04T06:54:09.734Z,22.27
2019-03-04T06:57:06.264Z,31.73
2019-03-04T07:00:07.804Z,32.03
2019-03-04T07:02:42.222Z,26.57
2019-03-04T07:05:52.513Z,30.40
2019-03-04T07:09:17.048Z,29.43
2019-03-04T07:11:51.662Z,26.50
2019-03-04T07:14:25.406Z,30.17
2019-03-04T07:16:58.731Z,27.20
2019-03-04T07:19:34.816Z,24.47
2019-03-04T07:22:08.089Z,25.70
2019-03-04T07:24:40.859Z,22.60
2019-03-04T07:27:15.475Z,29.27
2019-03-04T07:29:49.227Z,23.07
2019-03-04T07:32:22.413Z,22.37
2019-03-04T07:34:55.536Z,26.20
2019-03-04T07:37:28.810Z,22.40
2019-03-04T07:40:03.662Z,28.63
2019-03-04T07:42:36.418Z,21.80
2019-03-04T07:45:10.493Z,25.30
2019-03-04T07:47:46.618Z,24.93
2019-03-04T07:50:19.908Z,24.53
2019-03-04T07:53:00.393Z,26.33
2019-03-04T07:55:33.611Z,23.97
2019-03-04T07:58:09.511Z,25.50
2019-03-04T08:00:44.189Z,22.53
2019-03-04T08:03:18.272Z,21.67
2019-03-04T08:05:51.585Z,22.37
2019-03-04T08:08:27.336Z,21.80
2019-03-04T08:11:59.894Z,24.00
2019-03-04T08:14:33.520Z,20.07
2019-03-04T08:17:06.590Z,24.70
2019-03-04T08:19:39.791Z,23.13
2019-03-04T08:22:14.143Z,21.53
2019-03-04T08:24:47.937Z,26.27
2019-03-04T08:27:21.142Z,26.57
2019-03-04T08:29:58.137Z,28.27
2019-03-04T08:32:31.468Z,27.40
2019-03-04T08:35:04.964Z,24.90
2019-03-04T08:37:38.496Z,64.33
2019-03-04T08:40:13.206Z,23.63
2019-03-04T08:42:46.433Z,19.20
2019-03-04T08:45:21.667Z,22.47
2019-03-04T08:47:54.391Z,23.30
2019-03-04T08:50:27.475Z,28.33
2019-03-04T08:53:01.072Z,26.73
2019-03-04T08:55:34.240Z,25.57
2019-03-04T08:58:07.385Z,25.70
2019-03-04T09:00:40.870Z,23.27
2019-03-04T09:03:14.338Z,20.43
2019-03-04T09:05:47.701Z,39.10
2019-03-04T09:08:20.492Z,23.10
2019-03-04T09:10:53.933Z,17.10
2019-03-04T09:13:27.401Z,21.33
2019-03-04T09:16:03.974Z,22.47
2019-03-04T09:18:37.279Z,19.13
2019-03-04T09:21:10.790Z,19.17
2019-03-04T09:23:43.931Z,22.43
2019-03-04T09:26:17.136Z,19.43
2019-03-04T09:28:50.864Z,17.30
2019-03-04T09:31:25.408Z,16.07
2019-03-04T09:33:58.470Z,26.50
2019-03-04T09:36:32.045Z,13.47
2019-03-04T09:39:06.648Z,6.70
2019-03-04T09:41:39.625Z,4.27
2019-03-04T09:44:12.957Z,4.67
2019-03-04T09:46:45.925Z,3.00
2019-03-04T09:49:19.105Z,3.90
2019-03-04T09:51:52.242Z,5.03
2019-03-04T09:54:25.360Z,4.20
2019-03-04T09:56:59.984Z,5.93
2019-03-04T09:59:33.352Z,4.40
2019-03-04T10:02:17.595Z,4.13
2019-03-04T10:05:37.209Z,4.47
2019-03-04T10:08:40.882Z,4.93
2019-03-04T10:11:54.099Z,6.63
2019-03-04T10:15:09.076Z,4.60
2019-03-04T10:18:54.089Z,3.90
2019-03-04T10:22:14.190Z,5.60
2019-03-04T10:25:26.987Z,4.97
2019-03-04T10:28:51.124Z,3.20
2019-03-04T10:32:24.984Z,3.10
2019-03-04T10:35:34.033Z,4.87
2019-03-04T10:38:46.499Z,2.67
2019-03-04T10:42:17.688Z,3.23
2019-03-04T10:45:51.908Z,3.77
2019-03-04T10:48:24.980Z,4.20
2019-03-04T10:50:58.354Z,4.23
2019-03-04T10:53:31.456Z,3.37
2019-03-04T10:56:04.699Z,2.73
2019-03-04T10:58:37.793Z,3.20
2019-03-04T11:01:11.116Z,4.30
2019-03-04T11:03:44.307Z,3.50
2019-03-04T11:06:18.141Z,4.20
2019-03-04T11:08:52.711Z,4.30
2019-03-04T11:11:29.848Z,3.60
2019-03-04T11:14:01.418Z,4.03
2019-03-04T11:16:36.969Z,4.67
2019-03-04T11:19:10.328Z,5.53
2019-03-04T11:21:43.695Z,3.43
2019-03-04T11:24:17.513Z,5.60
2019-03-04T11:26:51.015Z,3.20
2019-03-04T11:29:24.916Z,3.60
2019-03-04T11:31:58.054Z,6.20
2019-03-04T11:34:31.240Z,4.97
2019-03-04T11:37:05.001Z,3.27
2019-03-04T11:39:57.662Z,4.17
2019-03-04T11:42:30.976Z,4.07
2019-03-04T11:45:07.646Z,4.30
2019-03-04T11:47:40.765Z,3.93
2019-03-04T11:50:16.117Z,3.43
2019-03-04T11:52:49.591Z,4.50
2019-03-04T11:55:24.552Z,4.50
2019-03-04T11:57:57.922Z,3.77
2019-03-04T12:00:41.420Z,5.37
2019-03-04T12:03:15.029Z,4.10
2019-03-04T12:05:48.618Z,4.83
2019-03-04T12:08:22.857Z,3.73
2019-03-04T12:10:56.566Z,6.70
2019-03-04T12:13:30.170Z,6.27
2019-03-04T12:16:04.235Z,3.10
2019-03-04T12:18:38.313Z,3.37
2019-03-04T12:21:11.790Z,3.10
2019-03-04T12:23:45.530Z,4.13
2019-03-04T12:26:19.492Z,3.03
2019-03-04T12:28:52.940Z,4.80
2019-03-04T12:31:30.362Z,3.47
2019-03-04T12:34:07.915Z,3.70
2019-03-04T12:36:41.426Z,4.30
2019-03-04T12:39:15.217Z,4.30
2019-03-04T12:41:49.803Z,4.73
2019-03-04T12:44:23.555Z,5.33
2019-03-04T12:46:56.876Z,3.67
2019-03-04T12:49:31.717Z,5.00
2019-03-04T12:52:06.396Z,4.57
2019-03-04T12:54:39.928Z,3.47
2019-03-04T12:57:13.326Z,3.87
2019-03-04T12:59:47.254Z,4.00
2019-03-04T13:02:20.769Z,4.37
2019-03-04T13:04:54.680Z,5.17
2019-03-04T13:07:28.691Z,4.20
2019-03-04T13:10:02.982Z,3.33
2019-03-04T13:12:36.088Z,4.20
2019-03-04T13:15:14.461Z,3.27
2019-03-04T13:17:47.835Z,4.93
2019-03-04T13:20:21.414Z,4.73
2019-03-04T13:22:54.661Z,4.67
2019-03-04T13:25:29.134Z,3.20
2019-03-04T13:28:08.233Z,6.03
2019-03-04T13:30:38.177Z,5.97
2019-03-04T13:33:12.098Z,5.30
2019-03-04T13:35:46.701Z,3.63
2019-03-04T13:38:20.592Z,4.03
2019-03-04T13:40:54.172Z,4.73
2019-03-04T13:43:27.533Z,3.90
2019-03-04T13:46:00.921Z,4.57
2019-03-04T13:48:34.404Z,4.33
2019-03-04T13:51:08.142Z,4.10
2019-03-04T13:53:42.054Z,3.80
2019-03-04T13:56:15.753Z,4.53
2019-03-04T13:58:52.939Z,5.03
2019-03-04T14:01:28.040Z,6.07
2019-03-04T14:04:01.492Z,5.47
2019-03-04T14:06:35.023Z,4.00
2019-03-04T14:09:09.994Z,6.93
2019-03-04T14:11:43.728Z,5.10
2019-03-04T14:14:17.226Z,4.83
2019-03-04T14:16:50.926Z,5.10
2019-03-04T14:19:24.670Z,4.93
2019-03-04T14:21:58.230Z,8.10
2019-03-04T14:24:31.600Z,6.17
2019-03-04T14:27:05.213Z,5.73
2019-03-04T14:29:38.661Z,5.67
2019-03-04T14:32:12.243Z,8.23
2019-03-04T14:34:45.818Z,6.00
2019-03-04T14:37:19.070Z,6.40
2019-03-04T14:39:53.050Z,7.17
2019-03-04T14:42:26.861Z,8.27
2019-03-04T14:45:00.456Z,6.30
2019-03-04T14:47:33.901Z,7.43
2019-03-04T14:50:10.372Z,6.10
2019-03-04T14:52:43.973Z,4.43
2019-03-04T14:55:19.740Z,4.43
2019-03-04T14:57:53.355Z,4.60
2019-03-04T15:00:39.180Z,8.10
2019-03-04T15:03:20.916Z,6.40
2019-03-04T15:05:48.408Z,6.43
2019-03-04T15:08:21.693Z,5.20
2019-03-04T15:10:55.467Z,5.60
2019-03-04T15:13:29.106Z,5.93
2019-03-04T15:16:04.497Z,4.23
2019-03-04T15:18:37.922Z,4.70
2019-03-04T15:21:11.861Z,5.43
2019-03-04T15:23:45.805Z,4.73
2019-03-04T15:26:19.242Z,5.30
2019-03-04T15:28:53.426Z,6.97
2019-03-04T15:31:27.051Z,4.87
2019-03-04T15:34:00.217Z,7.47
2019-03-04T15:36:33.863Z,4.70
2019-03-04T15:39:22.590Z,5.10
2019-03-04T15:41:50.409Z,6.23
2019-03-04T15:44:23.904Z,4.30
2019-03-04T15:46:57.237Z,6.47
2019-03-04T15:49:30.295Z,5.43
2019-03-04T15:52:03.860Z,5.70
2019-03-04T15:54:37.283Z,4.73
2019-03-04T15:57:11.463Z,5.10
2019-03-04T15:59:44.686Z,5.40
2019-03-04T16:02:18.955Z,8.40
2019-03-04T16:04:52.299Z,8.47
2019-03-04T16:07:26.079Z,4.77
2019-03-04T16:09:59.297Z,13.83
2019-03-04T16:12:33.201Z,13.77
2019-03-04T16:15:08.157Z,5.77
2019-03-04T16:17:41.688Z,10.43
2019-03-04T16:20:16.848Z,5.40
2019-03-04T16:22:51.099Z,5.47
2019-03-04T16:25:25.229Z,6.90
2019-03-04T16:28:21.890Z,8.20
2019-03-04T16:30:55.410Z,6.60
2019-03-04T16:33:29.988Z,8.30
2019-03-04T16:36:03.876Z,6.73
2019-03-04T16:38:38.158Z,7.17
2019-03-04T16:41:11.678Z,6.63
2019-03-04T16:43:44.808Z,10.17
2019-03-04T16:46:18.507Z,8.57
2019-03-04T16:48:52.465Z,8.80
2019-03-04T16:51:26.379Z,10.90
2019-03-04T16:53:59.845Z,8.30
2019-03-04T16:56:34.575Z,8.87
2019-03-04T16:59:07.663Z,6.40
2019-03-04T17:01:41.279Z,6.97
2019-03-04T17:04:14.948Z,5.70
2019-03-04T17:06:50.505Z,6.90
2019-03-04T17:09:24.517Z,5.53
2019-03-04T17:11:58.267Z,7.17
2019-03-04T17:14:34.233Z,8.47
2019-03-04T17:17:14.651Z,8.70
2019-03-04T17:19:48.640Z,7.57
2019-03-04T17:22:22.266Z,8.40
2019-03-04T17:24:56.384Z,9.50
2019-03-04T17:27:30.254Z,13.63
2019-03-04T17:30:04.132Z,12.17
2019-03-04T17:32:38.298Z,7.93
2019-03-04T17:35:13.369Z,6.63
2019-03-04T17:37:47.249Z,7.63
2019-03-04T17:40:22.535Z,10.23
2019-03-04T17:42:56.380Z,10.43
2019-03-04T17:45:33.219Z,6.53
2019-03-04T17:48:07.244Z,6.97
2019-03-04T17:50:41.818Z,7.27
2019-03-04T17:53:23.305Z,7.63
2019-03-04T17:55:58.469Z,9.77
2019-03-04T17:58:48.107Z,8.97
2019-03-04T18:01:22.243Z,8.90
2019-03-04T18:03:58.767Z,8.00
2019-03-04T18:06:32.646Z,8.20
2019-03-04T18:09:09.976Z,8.20
2019-03-04T18:11:45.122Z,5.83
2019-03-04T18:14:19.365Z,6.50
2019-03-04T18:16:53.641Z,7.10
2019-03-04T18:19:27.652Z,7.43
2019-03-04T18:22:02.116Z,8.10
2019-03-04T18:24:39.675Z,10.70
2019-03-04T18:27:36.028Z,10.27
2019-03-04T18:30:59.445Z,11.07
2019-03-04T18:34:22.792Z,15.83
2019-03-04T18:38:04.534Z,15.93
2019-03-04T18:41:22.799Z,11.77
2019-03-04T18:44:53.483Z,12.03
2019-03-04T18:48:18.678Z,10.60
2019-03-04T18:50:52.136Z,12.00
2019-03-04T18:53:25.343Z,12.90
2019-03-04T18:55:58.722Z,13.13
2019-03-04T18:58:31.719Z,9.50
2019-03-04T19:01:04.699Z,11.10
2019-03-04T19:03:38.312Z,12.27
2019-03-04T19:06:12.630Z,11.07
2019-03-04T19:08:45.917Z,10.93
2019-03-04T19:11:19.353Z,10.17
2019-03-04T19:13:53.161Z,10.67
2019-03-04T19:16:26.647Z,7.77
2019-03-04T19:18:59.943Z,8.60
2019-03-04T19:21:32.937Z,7.60
2019-03-04T19:24:06.869Z,10.30
2019-03-04T19:26:40.747Z,13.17
2019-03-04T19:29:14.055Z,11.60
2019-03-04T19:31:47.259Z,13.10
2019-03-04T19:34:20.561Z,11.30
2019-03-04T19:36:54.209Z,9.10
2019-03-04T19:39:28.034Z,6.27
2019-03-04T19:42:01.322Z,10.33
2019-03-04T19:44:34.931Z,7.03
2019-03-04T19:47:08.493Z,7.27
2019-03-04T19:49:41.648Z,8.17
2019-03-04T19:52:15.342Z,8.17
2019-03-04T19:54:49.070Z,5.73
2019-03-04T19:57:23.101Z,8.90
2019-03-04T19:59:59.122Z,8.10
2019-03-04T20:02:32.172Z,8.37
2019-03-04T20:05:06.548Z,9.90
2019-03-04T20:07:39.760Z,7.93
2019-03-04T20:10:16.012Z,7.40
2019-03-04T20:12:49.246Z,7.07
2019-03-04T20:15:24.270Z,6.70
2019-03-04T20:17:57.768Z,7.53
2019-03-04T20:20:31.696Z,9.33
2019-03-04T20:23:05.153Z,7.23
2019-03-04T20:25:38.816Z,6.97
2019-03-04T20:28:12.275Z,10.93
2019-03-04T20:30:45.814Z,9.37
2019-03-04T20:33:18.677Z,5.83
2019-03-04T20:35:52.609Z,6.63
2019-03-04T20:38:32.219Z,7.30
2019-03-04T20:41:05.599Z,9.77
2019-03-04T20:43:39.006Z,7.43
2019-03-04T20:46:11.911Z,9.13
2019-03-04T20:48:44.682Z,8.27
2019-03-04T20:51:17.774Z,7.47
2019-03-04T20:53:52.112Z,6.47
2019-03-04T20:56:25.127Z,9.17
2019-03-04T20:58:58.442Z,9.63
2019-03-04T21:01:31.799Z,12.03
2019-03-04T21:04:06.159Z,10.43
2019-03-04T21:06:39.981Z,8.00
2019-03-04T21:09:14.481Z,9.77
2019-03-04T21:11:47.677Z,10.83
2019-03-04T21:14:21.143Z,7.20
2019-03-04T21:16:55.267Z,6.70
2019-03-04T21:19:28.362Z,9.00
2019-03-04T21:22:01.426Z,7.70
2019-03-04T21:24:34.365Z,7.33
2019-03-04T21:27:07.478Z,7.00
2019-03-04T21:30:30.358Z,6.67
2019-03-04T21:33:34.359Z,7.90
2019-03-04T21:36:26.954Z,8.87
2019-03-04T21:39:01.165Z,11.13
2019-03-04T21:42:09.734Z,8.87
2019-03-04T21:45:24.048Z,8.63
2019-03-04T21:48:25.380Z,7.83
2019-03-04T21:51:48.523Z,7.03
2019-03-04T21:54:21.894Z,10.93
2019-03-04T21:57:23.487Z,6.80
2019-03-04T21:59:57.102Z,6.30
2019-03-04T22:03:18.578Z,6.63
2019-03-04T22:05:51.911Z,6.33
2019-03-04T22:08:25.211Z,6.23
2019-03-04T22:10:59.152Z,7.57
2019-03-04T22:13:32.474Z,7.50
2019-03-04T22:16:05.509Z,8.33
2019-03-04T22:18:38.847Z,8.30
2019-03-04T22:21:16.805Z,7.03
2019-03-04T22:23:47.394Z,10.60
2019-03-04T22:26:20.752Z,6.40
2019-03-04T22:28:54.193Z,8.83
2019-03-04T22:31:27.828Z,9.90
2019-03-04T22:34:01.026Z,6.50
2019-03-04T22:36:34.242Z,8.60
2019-03-04T22:39:08.706Z,7.17
2019-03-04T22:41:42.095Z,5.37
2019-03-04T22:44:15.133Z,9.00
2019-03-04T22:46:48.140Z,8.63
2019-03-04T22:49:21.298Z,13.13
2019-03-04T22:51:54.745Z,8.27
2019-03-04T22:54:27.803Z,7.57
2019-03-04T22:57:00.903Z,6.60
2019-03-04T22:59:33.922Z,10.27
2019-03-04T23:02:07.991Z,6.27
2019-03-04T23:05:06.715Z,8.70
2019-03-04T23:07:46.621Z,6.97
2019-03-04T23:10:46.010Z,9.03
2019-03-04T23:13:54.957Z,8.33
2019-03-04T23:16:32.069Z,7.10
2019-03-04T23:19:05.630Z,7.40
2019-03-04T23:21:39.087Z,6.57
2019-03-04T23:24:12.235Z,7.50
2019-03-04T23:26:45.689Z,6.23
2019-03-04T23:29:18.835Z,7.93
2019-03-04T23:31:51.900Z,10.17
2019-03-04T23:34:25.304Z,6.00
2019-03-04T23:36:58.434Z,8.63
2019-03-04T23:39:31.405Z,7.67
2019-03-04T23:42:04.500Z,10.67
2019-03-04T23:44:37.721Z,8.00
2019-03-04T23:47:10.833Z,8.30
2019-03-04T23:49:45.281Z,7.73
2019-03-04T23:52:18.020Z,6.97
2019-03-04T23:54:51.077Z,8.00
2019-03-04T23:57:24.308Z,6.80
2019-03-04T23:59:57.013Z,9.40
